createdAt,value
2023-02-16T00:01:53.396Z,4.50
2023-02-16T00:04:24.534Z,5.40
2023-02-16T00:06:53.758Z,4.62
2023-02-16T00:09:23.640Z,5.22
2023-02-16T00:12:10.682Z,4.50
2023-02-16T00:14:40.930Z,5.10
2023-02-16T00:17:12.115Z,5.55
2023-02-16T00:19:42.795Z,4.85
2023-02-16T00:22:11.564Z,6.07
2023-02-16T00:24:39.494Z,5.80
2023-02-16T00:27:15.008Z,5.82
2023-02-16T00:29:45.914Z,5.28
2023-02-16T00:32:15.466Z,5.28
2023-02-16T00:34:45.725Z,5.62
2023-02-16T00:37:14.893Z,5.80
2023-02-16T00:39:44.580Z,5.87
2023-02-16T00:42:18.082Z,5.75
2023-02-16T00:44:50.155Z,5.45
2023-02-16T00:47:20.908Z,5.07
2023-02-16T00:49:51.039Z,6.10
2023-02-16T00:52:34.590Z,5.80
2023-02-16T00:55:05.005Z,5.90
2023-02-16T00:57:36.776Z,4.95
2023-02-16T01:00:14.868Z,6.60
2023-02-16T01:02:43.615Z,5.82
2023-02-16T01:05:12.566Z,5.53
2023-02-16T01:07:58.297Z,5.60
2023-02-16T01:10:46.633Z,4.90
2023-02-16T01:13:15.636Z,5.90
2023-02-16T01:15:45.739Z,5.90
2023-02-16T01:18:15.401Z,6.32
2023-02-16T01:20:44.615Z,5.93
2023-02-16T01:23:13.181Z,6.40
2023-02-16T01:25:42.895Z,6.55
2023-02-16T01:28:20.317Z,5.43
2023-02-16T01:30:50.633Z,6.82
2023-02-16T01:33:18.885Z,5.55
2023-02-16T01:35:47.244Z,6.18
2023-02-16T01:38:20.050Z,6.60
2023-02-16T01:40:57.322Z,5.85
2023-02-16T01:43:29.844Z,5.78
2023-02-16T01:46:04.397Z,6.37
2023-02-16T01:48:33.543Z,5.97
2023-02-16T01:51:08.082Z,5.57
2023-02-16T01:53:41.048Z,7.05
2023-02-16T01:56:19.100Z,7.05
2023-02-16T01:58:51.459Z,6.43
2023-02-16T02:01:44.993Z,6.50
2023-02-16T02:04:42.247Z,6.10
2023-02-16T02:07:16.452Z,5.97
2023-02-16T02:09:51.250Z,6.72
2023-02-16T02:12:28.822Z,5.45
2023-02-16T02:14:57.375Z,6.45
2023-02-16T02:17:27.729Z,5.68
2023-02-16T02:20:03.227Z,7.60
2023-02-16T02:23:13.708Z,7.20
2023-02-16T02:26:24.430Z,6.57
2023-02-16T02:29:01.820Z,6.95
2023-02-16T02:31:42.075Z,7.28
2023-02-16T02:34:22.862Z,7.25
2023-02-16T02:36:59.845Z,7.07
2023-02-16T02:39:39.589Z,7.47
2023-02-16T02:42:14.780Z,6.57
2023-02-16T02:44:49.722Z,8.25
2023-02-16T02:47:17.875Z,7.32
2023-02-16T02:49:51.106Z,7.57
2023-02-16T02:52:19.594Z,8.18
2023-02-16T02:55:06.694Z,7.82
2023-02-16T02:57:58.015Z,6.93
2023-02-16T03:00:43.860Z,7.65
2023-02-16T03:03:17.016Z,7.95
2023-02-16T03:05:47.318Z,7.90
2023-02-16T03:08:18.345Z,8.10
2023-02-16T03:11:08.265Z,7.78
2023-02-16T03:13:44.074Z,7.65
2023-02-16T03:16:19.843Z,8.45
2023-02-16T03:19:06.756Z,8.93
2023-02-16T03:21:54.255Z,7.80
2023-02-16T03:24:45.568Z,8.90
2023-02-16T03:27:35.759Z,8.05
2023-02-16T03:30:07.065Z,8.00
2023-02-16T03:32:37.061Z,8.32
2023-02-16T03:35:05.400Z,8.68
2023-02-16T03:37:33.947Z,8.05
2023-02-16T03:40:26.033Z,9.70
2023-02-16T03:42:54.423Z,8.32
2023-02-16T03:45:24.930Z,8.63
2023-02-16T03:47:54.897Z,8.48
2023-02-16T03:50:23.955Z,8.63
2023-02-16T03:52:51.937Z,9.77
2023-02-16T03:55:20.232Z,9.40
2023-02-16T03:57:48.576Z,8.35
2023-02-16T04:00:17.343Z,8.40
2023-02-16T04:02:45.668Z,9.48
2023-02-16T04:05:15.385Z,9.18
2023-02-16T04:07:43.450Z,9.23
2023-02-16T04:10:11.869Z,8.57
2023-02-16T04:12:39.030Z,10.35
2023-02-16T04:15:09.334Z,9.20
2023-02-16T04:17:38.164Z,9.00
2023-02-16T04:20:07.735Z,10.05
2023-02-16T04:22:37.101Z,10.02
2023-02-16T04:25:06.071Z,9.50
2023-02-16T04:27:34.461Z,8.93
2023-02-16T04:30:02.551Z,9.23
2023-02-16T04:32:31.074Z,9.25
2023-02-16T04:34:59.244Z,9.32
2023-02-16T04:37:27.243Z,10.15
2023-02-16T04:39:56.948Z,10.20
2023-02-16T04:42:24.955Z,8.75
2023-02-16T04:44:53.319Z,9.68
2023-02-16T04:47:23.039Z,8.93
2023-02-16T04:49:51.053Z,10.32
2023-02-16T04:52:19.502Z,9.15
2023-02-16T04:54:47.913Z,10.27
2023-02-16T04:57:17.915Z,9.57
2023-02-16T04:59:46.012Z,11.70
2023-02-16T05:02:14.329Z,9.05
2023-02-16T05:04:43.069Z,9.98
2023-02-16T05:07:11.186Z,8.77
2023-02-16T05:09:39.386Z,10.45
2023-02-16T05:12:25.474Z,11.25
2023-02-16T05:14:55.248Z,9.55
2023-02-16T05:17:25.108Z,9.82
2023-02-16T05:19:55.689Z,10.55
2023-02-16T05:22:23.942Z,9.57
2023-02-16T05:24:52.453Z,10.65
2023-02-16T05:27:22.747Z,9.02
2023-02-16T05:29:51.014Z,8.98
2023-02-16T05:32:20.734Z,10.63
2023-02-16T05:34:49.188Z,10.90
2023-02-16T05:37:19.252Z,11.27
2023-02-16T05:39:47.228Z,10.82
2023-02-16T05:42:15.484Z,10.55
2023-02-16T05:44:43.462Z,10.25
2023-02-16T05:47:11.489Z,10.50
2023-02-16T05:49:41.582Z,10.73
2023-02-16T05:52:09.762Z,10.77
2023-02-16T05:54:37.834Z,9.18
2023-02-16T05:57:06.027Z,9.90
2023-02-16T05:59:34.104Z,9.82
2023-02-16T06:02:02.221Z,10.30
2023-02-16T06:04:32.547Z,11.50
2023-02-16T06:07:01.943Z,10.90
2023-02-16T06:09:31.328Z,11.20
2023-02-16T06:11:59.348Z,11.32
2023-02-16T06:14:27.359Z,10.50
2023-02-16T06:16:56.592Z,8.93
2023-02-16T06:19:24.577Z,10.65
2023-02-16T06:21:52.620Z,10.43
2023-02-16T06:24:22.250Z,10.48
2023-02-16T06:26:50.311Z,10.48
2023-02-16T06:29:18.293Z,10.88
2023-02-16T06:31:46.566Z,8.90
2023-02-16T06:34:14.678Z,10.35
2023-02-16T06:36:42.890Z,9.93
2023-02-16T06:39:11.304Z,10.63
2023-02-16T06:41:41.004Z,10.65
2023-02-16T06:44:12.411Z,9.82
2023-02-16T06:46:41.443Z,13.20
2023-02-16T06:49:18.062Z,10.70
2023-02-16T06:52:05.511Z,11.18
2023-02-16T06:54:33.751Z,11.85
2023-02-16T06:57:03.457Z,10.70
2023-02-16T06:59:31.438Z,9.82
2023-02-16T07:01:59.416Z,10.48
2023-02-16T07:04:27.823Z,10.43
2023-02-16T07:06:55.784Z,10.65
2023-02-16T07:09:42.605Z,10.35
2023-02-16T07:12:12.293Z,10.98
2023-02-16T07:14:58.816Z,10.68
2023-02-16T07:17:27.308Z,9.27
2023-02-16T07:19:55.399Z,10.43
2023-02-16T07:22:23.567Z,11.07
2023-02-16T07:24:51.892Z,10.88
2023-02-16T07:27:21.266Z,11.40
2023-02-16T07:29:49.303Z,11.07
2023-02-16T07:32:17.735Z,11.05
2023-02-16T07:34:46.059Z,10.40
2023-02-16T07:37:14.135Z,10.90
2023-02-16T07:39:42.429Z,12.40
2023-02-16T07:42:10.411Z,12.23
2023-02-16T07:44:39.797Z,13.07
2023-02-16T07:47:08.031Z,12.48
2023-02-16T07:49:36.172Z,11.07
2023-02-16T07:52:04.214Z,11.65
2023-02-16T07:54:32.652Z,11.48
2023-02-16T07:57:00.648Z,11.60
2023-02-16T07:59:28.642Z,10.90
2023-02-16T08:01:58.580Z,12.37
2023-02-16T08:04:26.889Z,12.25
2023-02-16T08:06:54.935Z,11.00
2023-02-16T08:09:23.014Z,13.15
2023-02-16T08:11:51.319Z,11.00
2023-02-16T08:14:19.309Z,11.27
2023-02-16T08:16:48.967Z,11.60
2023-02-16T08:19:19.983Z,13.10
2023-02-16T08:21:49.436Z,11.43
2023-02-16T08:24:18.130Z,11.82
2023-02-16T08:26:49.792Z,11.75
2023-02-16T08:29:18.687Z,10.80
2023-02-16T08:31:48.160Z,11.75
2023-02-16T08:34:18.573Z,11.48
2023-02-16T08:36:52.949Z,12.65
2023-02-16T08:39:22.901Z,11.32
2023-02-16T08:41:52.075Z,11.50
2023-02-16T08:44:21.547Z,13.65
2023-02-16T08:46:50.778Z,11.75
2023-02-16T08:49:21.883Z,12.45
2023-02-16T08:51:54.642Z,11.20
2023-02-16T08:54:26.649Z,13.35
2023-02-16T08:56:55.744Z,12.43
2023-02-16T08:59:28.223Z,13.05
2023-02-16T09:01:57.048Z,12.60
2023-02-16T09:04:29.027Z,12.57
2023-02-16T09:06:59.582Z,12.18
2023-02-16T09:09:28.887Z,12.18
2023-02-16T09:11:57.749Z,12.40
2023-02-16T09:14:26.441Z,13.27
2023-02-16T09:16:54.749Z,13.00
2023-02-16T09:19:22.888Z,13.35
2023-02-16T09:21:52.042Z,13.20
2023-02-16T09:24:22.013Z,12.60
2023-02-16T09:26:50.166Z,12.70
2023-02-16T09:29:18.729Z,12.52
2023-02-16T09:31:47.000Z,12.35
2023-02-16T09:34:17.725Z,13.25
2023-02-16T09:36:47.238Z,12.43
2023-02-16T09:39:16.993Z,11.98
2023-02-16T09:42:01.120Z,13.32
2023-02-16T09:44:40.954Z,12.02
2023-02-16T09:47:15.227Z,12.75
2023-02-16T09:49:45.294Z,11.70
2023-02-16T09:52:24.167Z,12.48
2023-02-16T09:54:54.938Z,12.02
2023-02-16T09:57:41.223Z,11.38
2023-02-16T10:00:18.958Z,12.70
2023-02-16T10:02:54.156Z,13.02
2023-02-16T10:05:28.257Z,11.85
2023-02-16T10:08:01.906Z,11.80
2023-02-16T10:10:40.333Z,12.18
2023-02-16T10:13:18.007Z,12.05
2023-02-16T10:15:47.068Z,11.35
2023-02-16T10:18:25.731Z,12.93
2023-02-16T10:20:57.232Z,11.88
2023-02-16T10:23:35.960Z,12.32
2023-02-16T10:26:14.999Z,11.82
2023-02-16T10:28:48.305Z,12.93
2023-02-16T10:31:23.799Z,12.70
2023-02-16T10:34:06.887Z,12.13
2023-02-16T10:36:51.882Z,13.20
2023-02-16T10:39:27.292Z,11.98
2023-02-16T10:42:03.550Z,11.65
2023-02-16T10:44:40.228Z,11.93
2023-02-16T10:47:20.798Z,12.10
2023-02-16T10:49:51.435Z,11.20
2023-02-16T10:52:21.015Z,11.90
2023-02-16T10:54:49.498Z,12.90
2023-02-16T10:57:27.156Z,12.02
2023-02-16T11:00:00.279Z,11.55
2023-02-16T11:02:36.571Z,10.85
2023-02-16T11:05:34.288Z,11.20
2023-02-16T11:08:07.716Z,11.40
2023-02-16T11:10:43.863Z,12.20
2023-02-16T11:13:29.590Z,10.95
2023-02-16T11:16:01.227Z,11.30
2023-02-16T11:18:39.117Z,10.73
2023-02-16T11:21:11.198Z,10.43
2023-02-16T11:23:40.916Z,11.25
2023-02-16T11:26:28.856Z,11.20
2023-02-16T11:29:08.801Z,10.82
2023-02-16T11:31:39.247Z,10.65
2023-02-16T11:34:13.610Z,11.12
2023-02-16T11:36:47.067Z,11.23
2023-02-16T11:39:20.508Z,11.20
2023-02-16T11:41:52.681Z,11.55
2023-02-16T11:44:28.027Z,11.60
2023-02-16T11:46:57.861Z,10.77
2023-02-16T11:49:35.472Z,10.95
2023-02-16T11:52:25.067Z,10.25
2023-02-16T11:55:03.144Z,10.80
2023-02-16T11:57:34.363Z,11.07
2023-02-16T12:00:11.882Z,10.32
2023-02-16T12:03:10.747Z,9.27
2023-02-16T12:05:49.015Z,9.82
2023-02-16T12:08:28.847Z,10.35
2023-02-16T12:11:11.485Z,10.60
2023-02-16T12:13:46.330Z,10.00
2023-02-16T12:16:28.053Z,10.82
2023-02-16T12:19:09.594Z,10.45
2023-02-16T12:21:45.460Z,10.82
2023-02-16T12:24:30.827Z,10.45
2023-02-16T12:27:02.804Z,10.55
2023-02-16T12:29:44.995Z,10.60
2023-02-16T12:32:32.930Z,10.23
2023-02-16T12:35:15.952Z,10.43
2023-02-16T12:37:54.760Z,10.98
2023-02-16T12:40:32.363Z,10.52
2023-02-16T12:43:19.606Z,10.30
2023-02-16T12:45:49.528Z,10.07
2023-02-16T12:48:36.382Z,9.90
2023-02-16T12:51:10.281Z,11.25
2023-02-16T12:53:46.931Z,9.98
2023-02-16T12:56:21.485Z,9.77
2023-02-16T12:58:55.466Z,9.45
2023-02-16T13:01:28.478Z,9.50
2023-02-16T13:04:01.369Z,10.55
2023-02-16T13:06:33.965Z,9.38
2023-02-16T13:09:12.181Z,10.18
2023-02-16T13:11:47.275Z,9.60
2023-02-16T13:14:21.429Z,9.30
2023-02-16T13:16:54.705Z,9.23
2023-02-16T13:19:23.216Z,9.38
2023-02-16T13:22:09.815Z,9.95
2023-02-16T13:24:49.261Z,10.43
2023-02-16T13:27:30.042Z,9.10
2023-02-16T13:30:28.871Z,9.23
2023-02-16T13:33:14.209Z,8.65
2023-02-16T13:35:58.545Z,9.30
2023-02-16T13:38:50.130Z,9.20
2023-02-16T13:41:35.736Z,8.93
2023-02-16T13:44:11.168Z,9.10
2023-02-16T13:46:43.779Z,9.40
2023-02-16T13:49:31.145Z,8.35
2023-02-16T13:52:00.873Z,9.13
2023-02-16T13:54:31.531Z,8.73
2023-02-16T13:57:03.611Z,9.20
2023-02-16T14:00:01.335Z,8.82
2023-02-16T14:03:01.546Z,8.90
2023-02-16T14:05:34.004Z,8.77
2023-02-16T14:08:24.505Z,9.52
2023-02-16T14:11:08.336Z,8.77
2023-02-16T14:13:48.460Z,9.57
2023-02-16T14:16:42.736Z,9.20
2023-02-16T14:19:21.159Z,8.50
2023-02-16T14:21:50.869Z,9.07
2023-02-16T14:24:33.906Z,8.85
2023-02-16T14:27:04.331Z,8.75
2023-02-16T14:29:36.807Z,8.02
2023-02-16T14:32:18.293Z,7.93
2023-02-16T14:34:53.338Z,8.25
2023-02-16T14:37:35.811Z,7.60
2023-02-16T14:40:23.377Z,8.38
2023-02-16T14:42:56.146Z,8.32
2023-02-16T14:45:54.700Z,8.57
2023-02-16T14:48:39.596Z,8.27
2023-02-16T14:51:35.080Z,8.30
2023-02-16T14:54:54.399Z,8.43
2023-02-16T14:57:31.707Z,7.07
2023-02-16T15:00:04.585Z,7.65
2023-02-16T15:02:35.028Z,8.85
2023-02-16T15:05:18.838Z,8.50
2023-02-16T15:07:50.470Z,7.72
2023-02-16T15:10:26.763Z,8.65
2023-02-16T15:12:56.120Z,7.82
2023-02-16T15:15:41.227Z,7.93
2023-02-16T15:18:16.349Z,8.10
2023-02-16T15:20:48.845Z,8.15
2023-02-16T15:23:22.119Z,7.22
2023-02-16T15:25:58.637Z,7.65
2023-02-16T15:28:29.505Z,8.45
2023-02-16T15:31:00.721Z,7.72
2023-02-16T15:33:37.121Z,7.93
2023-02-16T15:36:11.973Z,8.48
2023-02-16T15:38:41.844Z,7.40
2023-02-16T15:41:14.230Z,7.87
2023-02-16T15:43:47.556Z,8.13
2023-02-16T15:46:26.598Z,8.73
2023-02-16T15:48:55.043Z,8.35
2023-02-16T15:51:28.925Z,8.77
2023-02-16T15:53:59.542Z,7.97
2023-02-16T15:56:38.362Z,9.57
2023-02-16T15:59:28.788Z,8.68
2023-02-16T16:02:00.441Z,8.88
2023-02-16T16:04:29.737Z,9.02
2023-02-16T16:07:00.290Z,8.85
2023-02-16T16:09:31.395Z,9.40
2023-02-16T16:12:01.330Z,8.45
2023-02-16T16:14:33.952Z,10.15
2023-02-16T16:17:02.496Z,8.40
2023-02-16T16:19:35.826Z,9.10
2023-02-16T16:22:15.780Z,9.82
2023-02-16T16:24:47.817Z,8.77
2023-02-16T16:27:37.020Z,9.68
2023-02-16T16:30:31.897Z,8.20
2023-02-16T16:33:18.651Z,8.60
2023-02-16T16:35:50.417Z,9.05
2023-02-16T16:38:27.795Z,7.70
2023-02-16T16:41:06.998Z,8.10
2023-02-16T16:43:48.120Z,8.98
2023-02-16T16:46:24.195Z,9.30
2023-02-16T16:48:56.478Z,9.27
2023-02-16T16:51:38.959Z,8.07
2023-02-16T16:54:12.490Z,8.50
2023-02-16T16:56:42.583Z,9.40
2023-02-16T16:59:10.691Z,8.25
2023-02-16T17:01:38.687Z,9.32
2023-02-16T17:04:07.054Z,8.65
2023-02-16T17:06:35.067Z,7.93
2023-02-16T17:09:03.305Z,8.00
2023-02-16T17:11:35.521Z,9.20
2023-02-16T17:14:08.405Z,7.90
2023-02-16T17:16:40.399Z,8.52
2023-02-16T17:19:08.573Z,8.60
2023-02-16T17:21:36.856Z,9.40
2023-02-16T17:24:07.196Z,8.15
2023-02-16T17:26:37.607Z,8.48
2023-02-16T17:29:06.945Z,8.48
2023-02-16T17:31:35.613Z,8.85
2023-02-16T17:34:04.477Z,8.68
2023-02-16T17:36:34.387Z,8.50
2023-02-16T17:39:02.683Z,7.72
2023-02-16T17:41:30.856Z,9.32
2023-02-16T17:44:00.532Z,7.70
2023-02-16T17:46:29.076Z,8.30
2023-02-16T17:48:57.116Z,8.18
2023-02-16T17:51:26.674Z,8.13
2023-02-16T17:53:54.747Z,8.48
2023-02-16T17:56:25.009Z,8.65
2023-02-16T17:58:53.250Z,8.75
2023-02-16T18:01:22.747Z,8.73
2023-02-16T18:03:52.392Z,8.73
2023-02-16T18:06:25.045Z,8.27
2023-02-16T18:08:54.252Z,7.57
2023-02-16T18:11:22.287Z,8.65
2023-02-16T18:13:50.522Z,8.75
2023-02-16T18:16:21.807Z,9.02
2023-02-16T18:18:51.234Z,8.85
2023-02-16T18:21:19.689Z,8.90
2023-02-16T18:23:47.630Z,8.65
2023-02-16T18:26:17.288Z,8.60
2023-02-16T18:28:45.882Z,9.98
2023-02-16T18:31:14.640Z,8.73
2023-02-16T18:33:43.431Z,9.27
2023-02-16T18:36:14.046Z,8.00
2023-02-16T18:38:42.793Z,9.35
2023-02-16T18:41:10.921Z,8.52
2023-02-16T18:43:41.559Z,9.50
2023-02-16T18:46:11.398Z,9.68
2023-02-16T18:48:39.948Z,9.05
2023-02-16T18:51:09.679Z,9.30
2023-02-16T18:53:40.523Z,10.25
2023-02-16T18:56:12.735Z,9.77
2023-02-16T18:58:41.389Z,8.80
2023-02-16T19:01:14.393Z,9.07
2023-02-16T19:03:42.935Z,9.38
2023-02-16T19:06:11.366Z,9.70
2023-02-16T19:08:40.670Z,9.68
2023-02-16T19:11:08.718Z,8.38
2023-02-16T19:13:37.110Z,9.80
2023-02-16T19:16:06.092Z,8.40
2023-02-16T19:18:34.404Z,9.38
2023-02-16T19:21:06.060Z,9.60
2023-02-16T19:23:34.331Z,9.20
2023-02-16T19:26:07.528Z,8.90
2023-02-16T19:28:36.162Z,8.20
2023-02-16T19:31:06.640Z,8.25
2023-02-16T19:33:35.381Z,8.77
2023-02-16T19:36:05.534Z,9.05
2023-02-16T19:38:34.236Z,9.07
2023-02-16T19:41:02.716Z,9.05
2023-02-16T19:43:32.136Z,8.60
2023-02-16T19:46:00.443Z,8.18
2023-02-16T19:48:28.601Z,8.85
2023-02-16T19:50:58.302Z,8.65
2023-02-16T19:53:26.601Z,8.73
2023-02-16T19:55:54.987Z,8.77
2023-02-16T19:58:23.590Z,9.02
2023-02-16T20:00:54.013Z,9.32
2023-02-16T20:03:22.567Z,9.13
2023-02-16T20:05:50.595Z,9.80
2023-02-16T20:08:18.688Z,9.20
2023-02-16T20:10:47.032Z,8.85
2023-02-16T20:13:15.061Z,9.25
2023-02-16T20:15:43.869Z,9.05
2023-02-16T20:18:13.597Z,8.30
2023-02-16T20:20:41.604Z,9.30
2023-02-16T20:23:09.568Z,8.82
2023-02-16T20:25:40.422Z,8.90
2023-02-16T20:28:08.497Z,8.57
2023-02-16T20:30:36.585Z,9.75
2023-02-16T20:33:04.850Z,9.07
2023-02-16T20:35:34.469Z,8.23
2023-02-16T20:38:02.424Z,7.75
2023-02-16T20:40:30.736Z,8.52
2023-02-16T20:42:58.693Z,8.23
2023-02-16T20:45:26.741Z,8.00
2023-02-16T20:47:55.031Z,7.78
2023-02-16T20:50:23.097Z,8.02
2023-02-16T20:52:52.476Z,8.45
2023-02-16T20:55:20.712Z,7.97
2023-02-16T20:57:48.878Z,8.07
2023-02-16T21:00:21.683Z,8.07
2023-02-16T21:02:51.987Z,8.38
2023-02-16T21:05:21.512Z,9.82
2023-02-16T21:07:50.143Z,7.97
2023-02-16T21:10:19.584Z,8.80
2023-02-16T21:12:47.665Z,9.20
2023-02-16T21:15:16.042Z,8.35
2023-02-16T21:17:44.396Z,8.48
2023-02-16T21:20:12.707Z,8.05
2023-02-16T21:22:41.355Z,8.05
2023-02-16T21:25:09.674Z,8.32
2023-02-16T21:27:39.089Z,8.73
2023-02-16T21:30:09.263Z,8.25
2023-02-16T21:32:37.418Z,8.45
2023-02-16T21:35:06.058Z,9.50
2023-02-16T21:37:36.131Z,9.35
2023-02-16T21:40:22.241Z,8.60
2023-02-16T21:42:53.364Z,8.52
2023-02-16T21:45:21.666Z,8.68
2023-02-16T21:48:08.293Z,8.23
2023-02-16T21:50:38.931Z,9.25
2023-02-16T21:53:08.111Z,9.27
2023-02-16T21:55:55.488Z,7.93
2023-02-16T21:58:26.904Z,9.02
2023-02-16T22:00:56.483Z,8.43
2023-02-16T22:03:25.685Z,7.93
2023-02-16T22:05:53.737Z,7.90
2023-02-16T22:08:22.174Z,8.45
2023-02-16T22:10:50.435Z,8.10
2023-02-16T22:13:18.490Z,8.82
2023-02-16T22:15:48.900Z,9.32
2023-02-16T22:18:17.174Z,9.05
2023-02-16T22:20:46.492Z,8.18
2023-02-16T22:23:14.598Z,8.90
2023-02-16T22:25:42.883Z,8.25
2023-02-16T22:28:10.832Z,8.65
2023-02-16T22:30:38.800Z,8.32
2023-02-16T22:33:08.501Z,9.25
2023-02-16T22:35:36.579Z,9.63
2023-02-16T22:38:04.759Z,8.77
2023-02-16T22:40:33.066Z,9.13
2023-02-16T22:43:01.285Z,9.77
2023-02-16T22:45:30.138Z,9.18
2023-02-16T22:47:58.543Z,8.30
2023-02-16T22:50:27.966Z,8.43
2023-02-16T22:52:56.019Z,8.18
2023-02-16T22:55:24.347Z,8.55
2023-02-16T22:57:52.337Z,8.35
2023-02-16T23:00:20.457Z,9.23
2023-02-16T23:03:08.676Z,8.98
2023-02-16T23:05:39.252Z,9.02
2023-02-16T23:08:07.498Z,8.45
2023-02-16T23:10:35.888Z,9.10
2023-02-16T23:13:03.947Z,8.88
2023-02-16T23:15:32.338Z,8.10
2023-02-16T23:18:00.316Z,8.93
2023-02-16T23:20:28.697Z,9.10
2023-02-16T23:22:58.410Z,9.25
2023-02-16T23:25:35.408Z,8.45
2023-02-16T23:28:05.593Z,9.52
2023-02-16T23:30:33.646Z,8.95
2023-02-16T23:33:01.602Z,8.40
2023-02-16T23:35:29.937Z,8.13
2023-02-16T23:37:59.906Z,9.57
2023-02-16T23:40:28.041Z,8.52
2023-02-16T23:42:56.452Z,9.02
2023-02-16T23:45:24.486Z,9.35
2023-02-16T23:47:52.569Z,8.68
2023-02-16T23:50:21.268Z,8.95
2023-02-16T23:52:49.682Z,9.80
2023-02-16T23:55:19.578Z,9.38
2023-02-16T23:57:48.062Z,9.20
